Littleport, United Kingdom
Current Conditions -  °F | °C
As of 10:38 AM on Friday 24 Oct 2014 (Local Time) from EGUN Reporting Station
Scattered Clouds Scattered Clouds  
Wind Chill: 61°   Ceiling: Unl
Heat Index: 61°   Visibility: 6mi
Dew Point: 61°   Wind: 10mph
Humidity: 100%   Direction: 210°SSW
Pressure: 29.95"   Gusts: NA
Location:  52.46°N, 0.31°E
Report Text: EGUN 240938Z AUTO 21009KT 9999 SCT026 16/16 A2995 RMK AO2 $
Loading
Personal Weather Stations






























Interactive Weather Map New forecast layout! Learn more

10-Day Weather Forecast

Advertisements
Track Severe Weather on mobile